sensor_id;sensor_type;location;lat;lon;timestamp;temperature;humidity
22379;DHT22;11357;49.990;7.370;2023-08-06T00:00:09;18.60;89.70
22379;DHT22;11357;49.990;7.370;2023-08-06T00:02:35;18.60;89.80
22379;DHT22;11357;49.990;7.370;2023-08-06T00:05:01;18.60;89.80
22379;DHT22;11357;49.990;7.370;2023-08-06T00:07:27;18.60;89.90
22379;DHT22;11357;49.990;7.370;2023-08-06T00:09:52;18.50;90.00
22379;DHT22;11357;49.990;7.370;2023-08-06T00:12:18;18.40;90.00
22379;DHT22;11357;49.990;7.370;2023-08-06T00:14:44;18.30;90.10
22379;DHT22;11357;49.990;7.370;2023-08-06T00:17:10;18.20;90.50
22379;DHT22;11357;49.990;7.370;2023-08-06T00:19:36;18.20;90.30
22379;DHT22;11357;49.990;7.370;2023-08-06T00:22:02;18.10;90.30
22379;DHT22;11357;49.990;7.370;2023-08-06T00:24:28;18.10;90.30
22379;DHT22;11357;49.990;7.370;2023-08-06T00:26:54;18.10;90.40
22379;DHT22;11357;49.990;7.370;2023-08-06T00:29:19;18.10;90.30
22379;DHT22;11357;49.990;7.370;2023-08-06T00:31:45;18.00;90.30
22379;DHT22;11357;49.990;7.370;2023-08-06T00:34:11;18.00;90.30
22379;DHT22;11357;49.990;7.370;2023-08-06T00:36:36;18.00;90.30
22379;DHT22;11357;49.990;7.370;2023-08-06T00:39:02;18.00;90.30
22379;DHT22;11357;49.990;7.370;2023-08-06T00:41:28;18.00;90.20
22379;DHT22;11357;49.990;7.370;2023-08-06T00:43:54;18.10;90.20
22379;DHT22;11357;49.990;7.370;2023-08-06T00:46:20;18.10;90.10
22379;DHT22;11357;49.990;7.370;2023-08-06T00:48:46;18.10;90.20
22379;DHT22;11357;49.990;7.370;2023-08-06T00:51:12;18.10;90.20
22379;DHT22;11357;49.990;7.370;2023-08-06T00:53:39;18.10;90.20
22379;DHT22;11357;49.990;7.370;2023-08-06T00:56:05;18.10;90.20
22379;DHT22;11357;49.990;7.370;2023-08-06T00:58:32;18.10;90.20
22379;DHT22;11357;49.990;7.370;2023-08-06T01:00:58;18.10;90.20
22379;DHT22;11357;49.990;7.370;2023-08-06T01:03:24;18.10;90.30
22379;DHT22;11357;49.990;7.370;2023-08-06T01:05:50;18.10;90.30
22379;DHT22;11357;49.990;7.370;2023-08-06T01:08:30;18.10;90.40
22379;DHT22;11357;49.990;7.370;2023-08-06T01:13:47;18.10;90.60
22379;DHT22;11357;49.990;7.370;2023-08-06T01:16:19;18.10;90.50
22379;DHT22;11357;49.990;7.370;2023-08-06T01:18:47;18.10;90.60
22379;DHT22;11357;49.990;7.370;2023-08-06T01:21:18;18.10;90.60
22379;DHT22;11357;49.990;7.370;2023-08-06T01:23:45;18.10;90.60
22379;DHT22;11357;49.990;7.370;2023-08-06T01:26:19;18.10;90.70
22379;DHT22;11357;49.990;7.370;2023-08-06T01:29:02;18.10;90.80
22379;DHT22;11357;49.990;7.370;2023-08-06T01:31:34;18.10;90.80
22379;DHT22;11357;49.990;7.370;2023-08-06T01:34:01;18.10;90.80
22379;DHT22;11357;49.990;7.370;2023-08-06T01:36:28;18.10;90.80
22379;DHT22;11357;49.990;7.370;2023-08-06T01:38:54;18.10;90.80
22379;DHT22;11357;49.990;7.370;2023-08-06T01:41:20;18.10;90.90
22379;DHT22;11357;49.990;7.370;2023-08-06T01:43:46;18.10;90.90
22379;DHT22;11357;49.990;7.370;2023-08-06T01:46:11;18.00;90.90
22379;DHT22;11357;49.990;7.370;2023-08-06T01:48:37;18.00;90.90
22379;DHT22;11357;49.990;7.370;2023-08-06T01:51:06;18.00;91.00
22379;DHT22;11357;49.990;7.370;2023-08-06T01:53:33;18.00;91.00
22379;DHT22;11357;49.990;7.370;2023-08-06T01:55:58;18.00;91.00
22379;DHT22;11357;49.990;7.370;2023-08-06T01:58:24;18.00;91.00
22379;DHT22;11357;49.990;7.370;2023-08-06T02:00:50;18.10;91.10
22379;DHT22;11357;49.990;7.370;2023-08-06T02:03:16;18.10;91.00
22379;DHT22;11357;49.990;7.370;2023-08-06T02:05:41;18.10;90.90
22379;DHT22;11357;49.990;7.370;2023-08-06T02:08:07;18.20;90.90
22379;DHT22;11357;49.990;7.370;2023-08-06T02:10:33;18.20;90.90
22379;DHT22;11357;49.990;7.370;2023-08-06T02:12:59;18.20;90.90
22379;DHT22;11357;49.990;7.370;2023-08-06T02:15:24;18.20;90.90
22379;DHT22;11357;49.990;7.370;2023-08-06T02:17:50;18.20;90.90
22379;DHT22;11357;49.990;7.370;2023-08-06T02:20:16;18.10;90.90
22379;DHT22;11357;49.990;7.370;2023-08-06T02:22:42;18.20;91.00
22379;DHT22;11357;49.990;7.370;2023-08-06T02:25:08;18.10;90.90
22379;DHT22;11357;49.990;7.370;2023-08-06T02:27:34;18.10;91.00
22379;DHT22;11357;49.990;7.370;2023-08-06T02:29:59;18.10;91.00
22379;DHT22;11357;49.990;7.370;2023-08-06T02:32:25;18.00;91.00
22379;DHT22;11357;49.990;7.370;2023-08-06T02:34:51;18.00;91.00
22379;DHT22;11357;49.990;7.370;2023-08-06T02:37:17;18.00;91.00
22379;DHT22;11357;49.990;7.370;2023-08-06T02:39:43;18.00;91.10
22379;DHT22;11357;49.990;7.370;2023-08-06T02:42:09;17.90;91.10
22379;DHT22;11357;49.990;7.370;2023-08-06T02:44:35;17.90;91.20
22379;DHT22;11357;49.990;7.370;2023-08-06T02:47:01;17.90;91.20
22379;DHT22;11357;49.990;7.370;2023-08-06T02:49:27;17.90;91.30
22379;DHT22;11357;49.990;7.370;2023-08-06T02:51:52;17.90;91.30
22379;DHT22;11357;49.990;7.370;2023-08-06T02:54:19;17.90;91.20
22379;DHT22;11357;49.990;7.370;2023-08-06T02:56:47;17.90;91.30
22379;DHT22;11357;49.990;7.370;2023-08-06T02:59:13;17.80;91.30
22379;DHT22;11357;49.990;7.370;2023-08-06T03:01:39;17.80;91.40
22379;DHT22;11357;49.990;7.370;2023-08-06T03:04:05;17.80;91.40
22379;DHT22;11357;49.990;7.370;2023-08-06T03:06:31;17.80;91.40
22379;DHT22;11357;49.990;7.370;2023-08-06T03:08:57;17.80;91.50
22379;DHT22;11357;49.990;7.370;2023-08-06T03:11:23;17.70;91.50
22379;DHT22;11357;49.990;7.370;2023-08-06T03:13:49;17.70;91.60
22379;DHT22;11357;49.990;7.370;2023-08-06T03:16:14;17.70;91.60
22379;DHT22;11357;49.990;7.370;2023-08-06T03:18:40;17.70;91.70
22379;DHT22;11357;49.990;7.370;2023-08-06T03:21:06;17.70;91.80
22379;DHT22;11357;49.990;7.370;2023-08-06T03:23:32;17.70;91.80
22379;DHT22;11357;49.990;7.370;2023-08-06T03:26:04;17.70;91.80
22379;DHT22;11357;49.990;7.370;2023-08-06T03:28:30;17.70;91.90
22379;DHT22;11357;49.990;7.370;2023-08-06T03:31:03;17.70;91.80
22379;DHT22;11357;49.990;7.370;2023-08-06T03:33:29;17.70;91.90
22379;DHT22;11357;49.990;7.370;2023-08-06T03:35:55;17.70;91.90
22379;DHT22;11357;49.990;7.370;2023-08-06T03:38:21;17.70;92.00
22379;DHT22;11357;49.990;7.370;2023-08-06T03:40:48;17.70;92.00
22379;DHT22;11357;49.990;7.370;2023-08-06T03:43:14;17.70;92.00
22379;DHT22;11357;49.990;7.370;2023-08-06T03:45:41;17.70;92.10
22379;DHT22;11357;49.990;7.370;2023-08-06T03:48:07;17.70;92.20
22379;DHT22;11357;49.990;7.370;2023-08-06T03:50:33;17.60;92.10
22379;DHT22;11357;49.990;7.370;2023-08-06T03:52:59;17.60;92.10
22379;DHT22;11357;49.990;7.370;2023-08-06T03:55:24;17.60;92.20
22379;DHT22;11357;49.990;7.370;2023-08-06T03:57:50;17.60;92.30
22379;DHT22;11357;49.990;7.370;2023-08-06T04:00:16;17.60;92.30
22379;DHT22;11357;49.990;7.370;2023-08-06T04:02:42;17.60;92.40
22379;DHT22;11357;49.990;7.370;2023-08-06T04:05:08;17.50;92.40
22379;DHT22;11357;49.990;7.370;2023-08-06T04:07:34;17.60;92.40
22379;DHT22;11357;49.990;7.370;2023-08-06T04:10:02;17.60;92.50
22379;DHT22;11357;49.990;7.370;2023-08-06T04:12:28;17.60;92.50
22379;DHT22;11357;49.990;7.370;2023-08-06T04:14:55;17.60;92.50
22379;DHT22;11357;49.990;7.370;2023-08-06T04:17:21;17.60;92.60
22379;DHT22;11357;49.990;7.370;2023-08-06T04:19:52;17.60;92.60
22379;DHT22;11357;49.990;7.370;2023-08-06T04:22:18;17.60;92.60
22379;DHT22;11357;49.990;7.370;2023-08-06T04:24:44;17.60;92.50
22379;DHT22;11357;49.990;7.370;2023-08-06T04:27:11;17.60;92.50
22379;DHT22;11357;49.990;7.370;2023-08-06T04:29:37;17.60;92.60
22379;DHT22;11357;49.990;7.370;2023-08-06T04:32:08;17.60;92.70
22379;DHT22;11357;49.990;7.370;2023-08-06T04:34:35;17.60;92.70
22379;DHT22;11357;49.990;7.370;2023-08-06T04:37:02;17.60;92.80
22379;DHT22;11357;49.990;7.370;2023-08-06T04:39:28;17.60;92.80
22379;DHT22;11357;49.990;7.370;2023-08-06T04:41:58;17.60;92.90
22379;DHT22;11357;49.990;7.370;2023-08-06T04:44:24;17.50;92.90
22379;DHT22;11357;49.990;7.370;2023-08-06T04:46:50;17.60;92.90
22379;DHT22;11357;49.990;7.370;2023-08-06T04:49:16;17.60;92.90
22379;DHT22;11357;49.990;7.370;2023-08-06T04:51:41;17.60;92.90
22379;DHT22;11357;49.990;7.370;2023-08-06T04:54:07;17.60;93.00
22379;DHT22;11357;49.990;7.370;2023-08-06T04:56:33;17.50;93.00
22379;DHT22;11357;49.990;7.370;2023-08-06T04:58:59;17.60;93.10
22379;DHT22;11357;49.990;7.370;2023-08-06T05:01:25;17.50;93.10
22379;DHT22;11357;49.990;7.370;2023-08-06T05:03:51;17.60;93.10
22379;DHT22;11357;49.990;7.370;2023-08-06T05:06:16;17.60;93.10
22379;DHT22;11357;49.990;7.370;2023-08-06T05:08:42;17.60;93.20
22379;DHT22;11357;49.990;7.370;2023-08-06T05:11:08;17.50;93.20
22379;DHT22;11357;49.990;7.370;2023-08-06T05:13:34;17.60;93.30
22379;DHT22;11357;49.990;7.370;2023-08-06T05:16:00;17.50;93.20
22379;DHT22;11357;49.990;7.370;2023-08-06T05:18:26;17.60;93.20
22379;DHT22;11357;49.990;7.370;2023-08-06T05:20:52;17.60;93.30
22379;DHT22;11357;49.990;7.370;2023-08-06T05:23:17;17.60;93.40
22379;DHT22;11357;49.990;7.370;2023-08-06T05:25:43;17.50;93.40
22379;DHT22;11357;49.990;7.370;2023-08-06T05:28:09;17.50;93.50
22379;DHT22;11357;49.990;7.370;2023-08-06T05:30:39;17.50;93.60
22379;DHT22;11357;49.990;7.370;2023-08-06T05:33:04;17.50;93.60
22379;DHT22;11357;49.990;7.370;2023-08-06T05:35:30;17.50;93.60
22379;DHT22;11357;49.990;7.370;2023-08-06T05:37:56;17.60;93.70
22379;DHT22;11357;49.990;7.370;2023-08-06T05:40:22;17.60;93.70
22379;DHT22;11357;49.990;7.370;2023-08-06T05:42:47;17.60;93.70
22379;DHT22;11357;49.990;7.370;2023-08-06T05:45:13;17.70;93.70
22379;DHT22;11357;49.990;7.370;2023-08-06T05:47:39;17.70;93.70
22379;DHT22;11357;49.990;7.370;2023-08-06T05:50:05;17.70;93.80
22379;DHT22;11357;49.990;7.370;2023-08-06T05:52:31;17.80;93.80
22379;DHT22;11357;49.990;7.370;2023-08-06T05:54:57;17.90;93.80
22379;DHT22;11357;49.990;7.370;2023-08-06T05:57:22;17.90;93.80
22379;DHT22;11357;49.990;7.370;2023-08-06T05:59:48;18.00;93.80
22379;DHT22;11357;49.990;7.370;2023-08-06T06:02:14;18.00;93.70
22379;DHT22;11357;49.990;7.370;2023-08-06T06:04:40;18.10;93.80
22379;DHT22;11357;49.990;7.370;2023-08-06T06:07:06;18.20;93.80
22379;DHT22;11357;49.990;7.370;2023-08-06T06:09:32;18.20;93.80
22379;DHT22;11357;49.990;7.370;2023-08-06T06:11:57;18.30;93.80
22379;DHT22;11357;49.990;7.370;2023-08-06T06:14:23;18.40;93.80
22379;DHT22;11357;49.990;7.370;2023-08-06T06:16:49;18.50;93.80
22379;DHT22;11357;49.990;7.370;2023-08-06T06:19:14;18.60;93.70
22379;DHT22;11357;49.990;7.370;2023-08-06T06:21:40;18.70;93.60
22379;DHT22;11357;49.990;7.370;2023-08-06T06:24:06;18.70;93.60
22379;DHT22;11357;49.990;7.370;2023-08-06T06:26:33;18.70;93.50
22379;DHT22;11357;49.990;7.370;2023-08-06T06:28:59;18.70;93.40
22379;DHT22;11357;49.990;7.370;2023-08-06T06:31:25;18.80;93.50
22379;DHT22;11357;49.990;7.370;2023-08-06T06:33:50;18.80;93.30
22379;DHT22;11357;49.990;7.370;2023-08-06T06:36:18;18.80;93.20
22379;DHT22;11357;49.990;7.370;2023-08-06T06:38:44;18.70;93.00
22379;DHT22;11357;49.990;7.370;2023-08-06T06:41:10;18.70;93.30
22379;DHT22;11357;49.990;7.370;2023-08-06T06:43:36;18.60;93.00
22379;DHT22;11357;49.990;7.370;2023-08-06T06:46:03;18.60;93.00
22379;DHT22;11357;49.990;7.370;2023-08-06T06:48:31;18.60;93.00
22379;DHT22;11357;49.990;7.370;2023-08-06T06:50:56;18.70;93.10
22379;DHT22;11357;49.990;7.370;2023-08-06T06:53:22;18.80;93.10
22379;DHT22;11357;49.990;7.370;2023-08-06T06:56:01;19.00;93.00
22379;DHT22;11357;49.990;7.370;2023-08-06T06:58:27;19.00;92.90
22379;DHT22;11357;49.990;7.370;2023-08-06T07:00:53;19.20;92.90
22379;DHT22;11357;49.990;7.370;2023-08-06T07:03:20;19.20;92.70
22379;DHT22;11357;49.990;7.370;2023-08-06T07:05:46;19.30;92.60
22379;DHT22;11357;49.990;7.370;2023-08-06T07:08:11;19.30;92.50
22379;DHT22;11357;49.990;7.370;2023-08-06T07:10:38;19.30;92.50
22379;DHT22;11357;49.990;7.370;2023-08-06T07:13:03;19.40;92.50
22379;DHT22;11357;49.990;7.370;2023-08-06T07:15:29;19.50;92.40
22379;DHT22;11357;49.990;7.370;2023-08-06T07:17:55;19.60;92.40
22379;DHT22;11357;49.990;7.370;2023-08-06T07:20:21;19.70;92.30
22379;DHT22;11357;49.990;7.370;2023-08-06T07:22:46;19.70;92.10
22379;DHT22;11357;49.990;7.370;2023-08-06T07:25:12;19.70;92.00
22379;DHT22;11357;49.990;7.370;2023-08-06T07:27:38;19.60;91.80
22379;DHT22;11357;49.990;7.370;2023-08-06T07:30:04;19.60;91.80
22379;DHT22;11357;49.990;7.370;2023-08-06T07:32:31;19.40;91.70
22379;DHT22;11357;49.990;7.370;2023-08-06T07:34:56;19.40;91.70
22379;DHT22;11357;49.990;7.370;2023-08-06T07:37:26;19.30;91.80
22379;DHT22;11357;49.990;7.370;2023-08-06T07:39:54;19.30;91.80
22379;DHT22;11357;49.990;7.370;2023-08-06T07:42:20;19.30;91.80
22379;DHT22;11357;49.990;7.370;2023-08-06T07:44:53;19.20;91.80
22379;DHT22;11357;49.990;7.370;2023-08-06T07:47:19;19.10;91.80
22379;DHT22;11357;49.990;7.370;2023-08-06T07:49:45;19.00;91.80
22379;DHT22;11357;49.990;7.370;2023-08-06T07:52:11;18.90;91.90
22379;DHT22;11357;49.990;7.370;2023-08-06T07:54:37;18.90;92.00
22379;DHT22;11357;49.990;7.370;2023-08-06T07:57:02;18.80;92.00
22379;DHT22;11357;49.990;7.370;2023-08-06T07:59:28;18.80;92.00
22379;DHT22;11357;49.990;7.370;2023-08-06T08:01:54;18.70;92.20
22379;DHT22;11357;49.990;7.370;2023-08-06T08:04:19;18.70;92.20
22379;DHT22;11357;49.990;7.370;2023-08-06T08:06:46;18.80;92.30
22379;DHT22;11357;49.990;7.370;2023-08-06T08:09:13;18.80;92.30
22379;DHT22;11357;49.990;7.370;2023-08-06T08:11:39;18.80;92.40
22379;DHT22;11357;49.990;7.370;2023-08-06T08:14:05;18.90;92.50
22379;DHT22;11357;49.990;7.370;2023-08-06T08:16:31;19.00;92.50
22379;DHT22;11357;49.990;7.370;2023-08-06T08:18:57;19.10;92.30
22379;DHT22;11357;49.990;7.370;2023-08-06T08:21:22;19.20;92.30
22379;DHT22;11357;49.990;7.370;2023-08-06T08:23:50;19.10;92.20
22379;DHT22;11357;49.990;7.370;2023-08-06T08:26:15;19.10;92.10
22379;DHT22;11357;49.990;7.370;2023-08-06T08:28:41;19.10;92.10
22379;DHT22;11357;49.990;7.370;2023-08-06T08:31:10;19.10;92.20
22379;DHT22;11357;49.990;7.370;2023-08-06T08:33:37;19.10;92.20
22379;DHT22;11357;49.990;7.370;2023-08-06T08:36:03;19.10;92.10
22379;DHT22;11357;49.990;7.370;2023-08-06T08:38:29;19.10;92.20
22379;DHT22;11357;49.990;7.370;2023-08-06T08:40:55;19.10;92.20
22379;DHT22;11357;49.990;7.370;2023-08-06T08:43:24;19.10;92.20
22379;DHT22;11357;49.990;7.370;2023-08-06T08:45:51;19.10;92.20
22379;DHT22;11357;49.990;7.370;2023-08-06T08:48:18;19.10;92.20
22379;DHT22;11357;49.990;7.370;2023-08-06T08:50:46;19.10;92.30
22379;DHT22;11357;49.990;7.370;2023-08-06T08:53:14;19.10;92.40
22379;DHT22;11357;49.990;7.370;2023-08-06T08:55:41;19.20;92.40
22379;DHT22;11357;49.990;7.370;2023-08-06T08:58:07;19.20;92.20
22379;DHT22;11357;49.990;7.370;2023-08-06T09:00:33;19.20;92.20
22379;DHT22;11357;49.990;7.370;2023-08-06T09:03:00;19.20;92.20
22379;DHT22;11357;49.990;7.370;2023-08-06T09:05:28;19.20;92.20
22379;DHT22;11357;49.990;7.370;2023-08-06T09:08:02;19.30;92.30
22379;DHT22;11357;49.990;7.370;2023-08-06T09:10:28;19.20;92.30
22379;DHT22;11357;49.990;7.370;2023-08-06T09:12:55;19.30;92.30
22379;DHT22;11357;49.990;7.370;2023-08-06T09:15:24;19.30;92.40
22379;DHT22;11357;49.990;7.370;2023-08-06T09:17:50;19.30;92.40
22379;DHT22;11357;49.990;7.370;2023-08-06T09:20:16;19.40;92.30
22379;DHT22;11357;49.990;7.370;2023-08-06T09:22:41;19.30;92.20
22379;DHT22;11357;49.990;7.370;2023-08-06T09:25:08;19.30;92.20
22379;DHT22;11357;49.990;7.370;2023-08-06T09:27:39;19.30;91.90
22379;DHT22;11357;49.990;7.370;2023-08-06T09:30:06;19.30;91.90
22379;DHT22;11357;49.990;7.370;2023-08-06T09:32:48;19.30;91.90
22379;DHT22;11357;49.990;7.370;2023-08-06T09:35:19;19.30;92.00
22379;DHT22;11357;49.990;7.370;2023-08-06T09:37:46;19.40;91.90
22379;DHT22;11357;49.990;7.370;2023-08-06T09:40:40;19.40;91.90
22379;DHT22;11357;49.990;7.370;2023-08-06T09:43:07;19.40;92.00
22379;DHT22;11357;49.990;7.370;2023-08-06T09:45:35;19.40;91.80
22379;DHT22;11357;49.990;7.370;2023-08-06T09:48:05;19.40;91.70
22379;DHT22;11357;49.990;7.370;2023-08-06T09:50:32;19.30;91.70
22379;DHT22;11357;49.990;7.370;2023-08-06T09:53:00;19.30;91.60
22379;DHT22;11357;49.990;7.370;2023-08-06T09:55:27;19.20;91.60
22379;DHT22;11357;49.990;7.370;2023-08-06T09:57:53;19.20;91.70
22379;DHT22;11357;49.990;7.370;2023-08-06T10:00:19;19.30;91.70
22379;DHT22;11357;49.990;7.370;2023-08-06T10:02:48;19.30;91.60
22379;DHT22;11357;49.990;7.370;2023-08-06T10:05:15;19.20;91.60
22379;DHT22;11357;49.990;7.370;2023-08-06T10:07:43;19.20;91.60
22379;DHT22;11357;49.990;7.370;2023-08-06T10:10:09;19.10;91.60
22379;DHT22;11357;49.990;7.370;2023-08-06T10:13:02;19.00;91.70
22379;DHT22;11357;49.990;7.370;2023-08-06T10:15:31;19.00;91.80
22379;DHT22;11357;49.990;7.370;2023-08-06T10:17:59;19.00;91.70
22379;DHT22;11357;49.990;7.370;2023-08-06T10:20:26;18.90;91.60
22379;DHT22;11357;49.990;7.370;2023-08-06T10:23:05;18.80;91.40
22379;DHT22;11357;49.990;7.370;2023-08-06T10:25:39;18.80;91.60
22379;DHT22;11357;49.990;7.370;2023-08-06T10:28:11;18.80;91.50
22379;DHT22;11357;49.990;7.370;2023-08-06T10:30:49;18.90;91.50
22379;DHT22;11357;49.990;7.370;2023-08-06T10:33:19;18.90;91.50
22379;DHT22;11357;49.990;7.370;2023-08-06T10:35:46;19.10;91.40
22379;DHT22;11357;49.990;7.370;2023-08-06T10:38:20;19.10;91.00
22379;DHT22;11357;49.990;7.370;2023-08-06T10:43:36;19.20;90.80
22379;DHT22;11357;49.990;7.370;2023-08-06T10:46:28;19.20;90.70
22379;DHT22;11357;49.990;7.370;2023-08-06T10:48:54;19.20;90.60
22379;DHT22;11357;49.990;7.370;2023-08-06T10:51:20;19.30;90.90
22379;DHT22;11357;49.990;7.370;2023-08-06T10:53:48;19.30;90.60
22379;DHT22;11357;49.990;7.370;2023-08-06T10:56:24;19.40;90.40
22379;DHT22;11357;49.990;7.370;2023-08-06T10:58:54;19.30;90.30
22379;DHT22;11357;49.990;7.370;2023-08-06T11:01:22;19.30;90.30
22379;DHT22;11357;49.990;7.370;2023-08-06T11:03:49;19.30;90.40
22379;DHT22;11357;49.990;7.370;2023-08-06T11:06:20;19.30;90.40
22379;DHT22;11357;49.990;7.370;2023-08-06T11:08:51;19.30;90.30
22379;DHT22;11357;49.990;7.370;2023-08-06T11:11:18;19.20;90.20
22379;DHT22;11357;49.990;7.370;2023-08-06T11:13:48;19.10;90.40
22379;DHT22;11357;49.990;7.370;2023-08-06T11:16:18;19.10;90.50
22379;DHT22;11357;49.990;7.370;2023-08-06T11:18:45;19.10;90.50
22379;DHT22;11357;49.990;7.370;2023-08-06T11:21:11;19.10;90.40
22379;DHT22;11357;49.990;7.370;2023-08-06T11:23:37;19.10;90.40
22379;DHT22;11357;49.990;7.370;2023-08-06T11:26:03;19.00;90.50
22379;DHT22;11357;49.990;7.370;2023-08-06T11:28:29;19.00;90.60
22379;DHT22;11357;49.990;7.370;2023-08-06T11:30:55;19.00;90.60
22379;DHT22;11357;49.990;7.370;2023-08-06T11:33:26;19.10;90.60
22379;DHT22;11357;49.990;7.370;2023-08-06T11:35:52;19.10;90.50
22379;DHT22;11357;49.990;7.370;2023-08-06T11:38:19;19.10;90.60
22379;DHT22;11357;49.990;7.370;2023-08-06T11:40:45;19.30;90.60
22379;DHT22;11357;49.990;7.370;2023-08-06T11:43:12;19.30;90.60
22379;DHT22;11357;49.990;7.370;2023-08-06T11:45:38;19.40;90.40
22379;DHT22;11357;49.990;7.370;2023-08-06T11:48:05;19.50;90.50
22379;DHT22;11357;49.990;7.370;2023-08-06T11:50:30;19.50;90.50
22379;DHT22;11357;49.990;7.370;2023-08-06T11:52:57;19.60;90.60
22379;DHT22;11357;49.990;7.370;2023-08-06T11:55:24;19.80;90.30
22379;DHT22;11357;49.990;7.370;2023-08-06T11:57:51;19.90;90.30
22379;DHT22;11357;49.990;7.370;2023-08-06T12:00:17;19.90;90.20
22379;DHT22;11357;49.990;7.370;2023-08-06T12:02:46;20.00;90.30
22379;DHT22;11357;49.990;7.370;2023-08-06T12:05:15;20.00;90.30
22379;DHT22;11357;49.990;7.370;2023-08-06T12:07:47;20.00;90.20
22379;DHT22;11357;49.990;7.370;2023-08-06T12:10:14;20.00;90.20
22379;DHT22;11357;49.990;7.370;2023-08-06T12:12:40;20.00;90.10
22379;DHT22;11357;49.990;7.370;2023-08-06T12:15:07;19.90;89.80
22379;DHT22;11357;49.990;7.370;2023-08-06T12:17:33;19.70;90.00
22379;DHT22;11357;49.990;7.370;2023-08-06T12:20:00;19.70;90.10
22379;DHT22;11357;49.990;7.370;2023-08-06T12:22:26;19.60;90.10
22379;DHT22;11357;49.990;7.370;2023-08-06T12:24:51;19.60;90.00
22379;DHT22;11357;49.990;7.370;2023-08-06T12:27:17;19.50;90.00
22379;DHT22;11357;49.990;7.370;2023-08-06T12:29:45;19.30;89.80
22379;DHT22;11357;49.990;7.370;2023-08-06T12:32:11;19.20;90.00
22379;DHT22;11357;49.990;7.370;2023-08-06T12:34:41;19.00;90.10
22379;DHT22;11357;49.990;7.370;2023-08-06T12:37:08;19.00;90.30
22379;DHT22;11357;49.990;7.370;2023-08-06T12:39:34;18.90;90.30
22379;DHT22;11357;49.990;7.370;2023-08-06T12:42:01;18.80;90.40
22379;DHT22;11357;49.990;7.370;2023-08-06T12:44:28;18.80;90.50
22379;DHT22;11357;49.990;7.370;2023-08-06T12:46:54;18.70;90.50
22379;DHT22;11357;49.990;7.370;2023-08-06T12:49:20;18.60;90.60
22379;DHT22;11357;49.990;7.370;2023-08-06T12:51:47;18.50;90.60
22379;DHT22;11357;49.990;7.370;2023-08-06T12:54:13;18.50;90.70
22379;DHT22;11357;49.990;7.370;2023-08-06T12:56:38;18.40;90.80
22379;DHT22;11357;49.990;7.370;2023-08-06T12:59:04;18.40;91.00
22379;DHT22;11357;49.990;7.370;2023-08-06T13:01:30;18.40;91.10
22379;DHT22;11357;49.990;7.370;2023-08-06T13:03:55;18.40;91.10
22379;DHT22;11357;49.990;7.370;2023-08-06T13:06:21;18.40;91.20
22379;DHT22;11357;49.990;7.370;2023-08-06T13:08:47;18.40;91.20
22379;DHT22;11357;49.990;7.370;2023-08-06T13:11:13;18.40;91.30
22379;DHT22;11357;49.990;7.370;2023-08-06T13:13:38;18.30;91.40
22379;DHT22;11357;49.990;7.370;2023-08-06T13:16:04;18.30;91.80
22379;DHT22;11357;49.990;7.370;2023-08-06T13:18:29;18.20;91.50
22379;DHT22;11357;49.990;7.370;2023-08-06T13:20:56;18.30;91.70
22379;DHT22;11357;49.990;7.370;2023-08-06T13:23:22;18.30;91.60
22379;DHT22;11357;49.990;7.370;2023-08-06T13:25:47;18.30;91.70
22379;DHT22;11357;49.990;7.370;2023-08-06T13:28:13;18.30;91.60
22379;DHT22;11357;49.990;7.370;2023-08-06T13:30:40;18.20;91.80
22379;DHT22;11357;49.990;7.370;2023-08-06T13:33:10;18.30;91.80
22379;DHT22;11357;49.990;7.370;2023-08-06T13:35:36;18.30;91.90
22379;DHT22;11357;49.990;7.370;2023-08-06T13:38:02;18.30;91.80
22379;DHT22;11357;49.990;7.370;2023-08-06T13:40:29;18.30;91.60
22379;DHT22;11357;49.990;7.370;2023-08-06T13:42:55;18.30;91.70
22379;DHT22;11357;49.990;7.370;2023-08-06T13:45:21;18.30;91.70
22379;DHT22;11357;49.990;7.370;2023-08-06T13:47:47;18.20;91.70
22379;DHT22;11357;49.990;7.370;2023-08-06T13:50:13;18.10;91.70
22379;DHT22;11357;49.990;7.370;2023-08-06T13:52:39;18.10;91.70
22379;DHT22;11357;49.990;7.370;2023-08-06T13:55:05;18.10;91.80
22379;DHT22;11357;49.990;7.370;2023-08-06T13:57:31;18.10;91.90
22379;DHT22;11357;49.990;7.370;2023-08-06T13:59:57;18.10;91.80
22379;DHT22;11357;49.990;7.370;2023-08-06T14:02:23;18.10;91.80
22379;DHT22;11357;49.990;7.370;2023-08-06T14:04:48;18.10;91.80
22379;DHT22;11357;49.990;7.370;2023-08-06T14:07:14;18.20;91.70
22379;DHT22;11357;49.990;7.370;2023-08-06T14:09:40;18.20;91.70
22379;DHT22;11357;49.990;7.370;2023-08-06T14:12:07;18.10;91.60
22379;DHT22;11357;49.990;7.370;2023-08-06T14:14:33;18.10;91.70
22379;DHT22;11357;49.990;7.370;2023-08-06T14:16:59;18.00;91.80
22379;DHT22;11357;49.990;7.370;2023-08-06T14:19:25;18.00;91.80
22379;DHT22;11357;49.990;7.370;2023-08-06T14:21:50;17.90;91.90
22379;DHT22;11357;49.990;7.370;2023-08-06T14:24:16;17.90;91.90
22379;DHT22;11357;49.990;7.370;2023-08-06T14:26:42;17.90;91.90
22379;DHT22;11357;49.990;7.370;2023-08-06T14:29:07;17.90;92.00
22379;DHT22;11357;49.990;7.370;2023-08-06T14:31:33;17.90;92.10
22379;DHT22;11357;49.990;7.370;2023-08-06T14:33:59;17.90;92.10
22379;DHT22;11357;49.990;7.370;2023-08-06T14:36:26;17.90;92.00
22379;DHT22;11357;49.990;7.370;2023-08-06T14:38:51;18.00;92.10
22379;DHT22;11357;49.990;7.370;2023-08-06T14:41:17;18.00;92.10
22379;DHT22;11357;49.990;7.370;2023-08-06T14:43:43;18.00;92.20
22379;DHT22;11357;49.990;7.370;2023-08-06T14:46:08;18.10;92.20
22379;DHT22;11357;49.990;7.370;2023-08-06T14:48:34;18.20;92.20
22379;DHT22;11357;49.990;7.370;2023-08-06T14:51:00;18.10;92.20
22379;DHT22;11357;49.990;7.370;2023-08-06T14:53:26;18.10;92.20
22379;DHT22;11357;49.990;7.370;2023-08-06T14:55:52;18.10;92.10
22379;DHT22;11357;49.990;7.370;2023-08-06T14:58:19;18.10;92.00
22379;DHT22;11357;49.990;7.370;2023-08-06T15:00:45;18.00;92.10
22379;DHT22;11357;49.990;7.370;2023-08-06T15:03:11;18.10;92.20
22379;DHT22;11357;49.990;7.370;2023-08-06T15:05:36;18.10;92.20
22379;DHT22;11357;49.990;7.370;2023-08-06T15:08:02;18.20;92.20
22379;DHT22;11357;49.990;7.370;2023-08-06T15:10:28;18.20;92.10
22379;DHT22;11357;49.990;7.370;2023-08-06T15:12:54;18.30;92.10
22379;DHT22;11357;49.990;7.370;2023-08-06T15:15:20;18.40;92.10
22379;DHT22;11357;49.990;7.370;2023-08-06T15:17:47;18.50;92.00
22379;DHT22;11357;49.990;7.370;2023-08-06T15:20:13;18.60;91.90
22379;DHT22;11357;49.990;7.370;2023-08-06T15:22:39;18.70;91.70
22379;DHT22;11357;49.990;7.370;2023-08-06T15:25:05;18.80;91.60
22379;DHT22;11357;49.990;7.370;2023-08-06T15:27:30;18.70;91.60
22379;DHT22;11357;49.990;7.370;2023-08-06T15:29:58;18.80;91.50
22379;DHT22;11357;49.990;7.370;2023-08-06T15:32:23;18.80;91.30